Nordegg, Canada
Current Conditions -  °F | °C
As of 2:15 PM on Thursday 23 Oct 2014 (Local Time) from CYET Reporting Station
Few Clouds Few Clouds  
Wind Chill: 57°   Ceiling: Unl
Heat Index: 57°   Visibility: 9mi
Dew Point: 27°   Wind: 18mph
Humidity: 31%   Direction: 280°W
Pressure: 29.46"   Gusts: 24mph
Location:  52.47°N, 116.08°W
Report Text: CYET 232015Z AUTO 28016G21KT 9SM FEW085 14/M03 A2946 RMK SLP990 DENSITY ALT 4100FT
Loading
Personal Weather Stations






























Interactive Weather Map
Tropical Storm Tracking
New forecast layout! Learn more

10-Day Weather Forecast

Advertisements
Track Severe Weather on mobile